createdAt,value
2022-12-25T00:03:02.944Z,15.30
2022-12-25T00:07:08.583Z,22.83
2022-12-25T00:11:17.489Z,12.07
2022-12-25T00:15:23.092Z,36.77
2022-12-25T00:19:28.633Z,11.70
2022-12-25T00:23:35.434Z,25.90
2022-12-25T00:27:41.244Z,28.93
2022-12-25T00:31:47.402Z,14.90
2022-12-25T00:36:00.806Z,19.25
2022-12-25T00:40:07.603Z,15.10
2022-12-25T00:44:13.963Z,16.07
2022-12-25T00:48:19.588Z,25.20
2022-12-25T00:52:25.482Z,24.83
2022-12-25T00:56:31.348Z,20.47
2022-12-25T01:00:37.384Z,18.73
2022-12-25T01:04:43.272Z,20.67
2022-12-25T01:09:07.984Z,27.27
2022-12-25T01:13:13.752Z,29.03
2022-12-25T01:17:19.683Z,27.33
2022-12-25T01:21:25.946Z,13.47
2022-12-25T01:25:31.811Z,18.60
2022-12-25T01:29:39.490Z,12.03
2022-12-25T01:33:46.480Z,25.33
2022-12-25T01:37:53.025Z,19.03
2022-12-25T01:41:59.004Z,9.10
2022-12-25T01:46:05.469Z,18.97
2022-12-25T01:50:11.506Z,16.83
2022-12-25T01:54:48.709Z,17.57
2022-12-25T01:58:56.526Z,100.67
2022-12-25T02:03:03.672Z,15.00
2022-12-25T02:07:16.268Z,11.10
2022-12-25T02:11:40.921Z,13.30
2022-12-25T02:16:13.752Z,18.80
2022-12-25T02:20:53.528Z,11.10
2022-12-25T02:25:32.044Z,29.03
2022-12-25T02:29:49.829Z,24.40
2022-12-25T02:34:37.276Z,39.80
2022-12-25T02:39:04.932Z,10.03
2022-12-25T02:43:44.423Z,18.33
2022-12-25T02:48:09.907Z,16.83
2022-12-25T02:52:41.181Z,19.27
2022-12-25T02:57:07.867Z,19.03
2022-12-25T03:01:39.087Z,22.77
2022-12-25T03:06:04.703Z,19.40
2022-12-25T03:10:38.387Z,28.00
2022-12-25T03:15:04.577Z,20.53
2022-12-25T03:19:30.221Z,14.37
2022-12-25T03:23:59.288Z,52.23
2022-12-25T03:28:07.258Z,20.43
2022-12-25T03:32:42.420Z,18.10
2022-12-25T03:37:29.720Z,27.60
2022-12-25T03:42:01.542Z,21.97
2022-12-25T03:46:32.939Z,21.10
2022-12-25T03:51:06.882Z,21.13
2022-12-25T03:55:34.414Z,33.70
2022-12-25T03:59:58.297Z,36.90
2022-12-25T04:04:22.676Z,48.50
2022-12-25T04:08:46.675Z,32.10
2022-12-25T04:13:10.512Z,33.87
2022-12-25T04:17:34.809Z,22.03
2022-12-25T04:21:58.826Z,27.50
2022-12-25T04:26:22.902Z,46.33
2022-12-25T04:30:48.680Z,54.37
2022-12-25T04:35:12.911Z,57.90
2022-12-25T04:39:18.542Z,72.10
2022-12-25T04:43:25.244Z,132.90
2022-12-25T04:47:30.810Z,111.87
2022-12-25T04:51:37.114Z,230.77
2022-12-25T04:55:42.981Z,78.93
2022-12-25T04:59:48.398Z,143.07
2022-12-25T05:03:54.055Z,181.57
2022-12-25T05:07:59.569Z,97.03
2022-12-25T05:12:05.229Z,144.13
2022-12-25T05:16:18.116Z,133.77
2022-12-25T05:20:23.645Z,195.70
2022-12-25T05:24:29.167Z,270.90
2022-12-25T05:28:35.771Z,199.90
2022-12-25T05:32:41.551Z,162.20
2022-12-25T05:36:47.043Z,85.47
2022-12-25T05:40:52.606Z,189.53
2022-12-25T05:44:58.284Z,96.40
2022-12-25T05:49:05.622Z,150.13
2022-12-25T05:53:14.679Z,177.63
2022-12-25T05:57:20.131Z,201.87
2022-12-25T06:01:28.421Z,119.17
2022-12-25T06:05:34.101Z,60.47
2022-12-25T06:09:39.669Z,76.83
2022-12-25T06:13:50.061Z,199.03
2022-12-25T06:17:55.558Z,170.70
2022-12-25T06:22:01.040Z,66.53
2022-12-25T06:26:10.950Z,128.90
2022-12-25T06:30:16.650Z,49.17
2022-12-25T06:34:22.224Z,63.07
2022-12-25T06:38:28.556Z,55.87
2022-12-25T06:42:34.142Z,48.53
2022-12-25T06:46:39.818Z,56.57
2022-12-25T06:50:45.304Z,50.17
2022-12-25T06:54:52.058Z,123.07
2022-12-25T06:59:03.858Z,65.33
2022-12-25T07:03:09.628Z,129.37
2022-12-25T07:07:15.273Z,91.13
2022-12-25T07:11:21.938Z,58.70
2022-12-25T07:15:27.435Z,42.93
2022-12-25T07:19:33.033Z,48.47
2022-12-25T07:23:38.632Z,40.90
2022-12-25T07:27:44.088Z,33.50
2022-12-25T07:31:49.689Z,49.10
2022-12-25T07:35:55.269Z,57.20
2022-12-25T07:40:00.773Z,49.87
2022-12-25T07:44:06.318Z,42.30
2022-12-25T07:48:16.450Z,34.60
2022-12-25T07:52:22.742Z,31.50
2022-12-25T07:56:28.562Z,39.57
2022-12-25T08:00:34.108Z,36.30
2022-12-25T08:04:39.689Z,30.90
2022-12-25T08:08:45.781Z,41.03
2022-12-25T08:12:52.102Z,30.90
2022-12-25T08:16:57.710Z,39.57
2022-12-25T08:21:12.584Z,28.03
2022-12-25T08:25:18.043Z,26.37
2022-12-25T08:29:23.817Z,31.03
2022-12-25T08:33:29.229Z,40.57
2022-12-25T08:37:34.888Z,33.23
2022-12-25T08:41:40.563Z,29.77
2022-12-25T08:45:47.646Z,30.07
2022-12-25T08:49:53.164Z,32.60
2022-12-25T08:54:01.025Z,32.47
2022-12-25T08:58:07.502Z,33.43
2022-12-25T09:02:13.504Z,47.57
2022-12-25T09:06:19.248Z,53.00
2022-12-25T09:10:24.764Z,32.10
2022-12-25T09:14:31.499Z,35.10
2022-12-25T09:18:37.476Z,32.37
2022-12-25T09:22:43.028Z,21.80
2022-12-25T09:26:48.858Z,22.57
2022-12-25T09:30:55.114Z,25.93
2022-12-25T09:35:00.728Z,33.07
2022-12-25T09:39:06.158Z,30.63
2022-12-25T09:43:16.761Z,36.00
2022-12-25T09:47:31.083Z,27.70
2022-12-25T09:51:39.716Z,35.23
2022-12-25T09:56:14.616Z,27.13
2022-12-25T10:00:23.891Z,35.03
2022-12-25T10:05:02.672Z,45.20
2022-12-25T10:09:25.867Z,27.63
2022-12-25T10:14:20.922Z,34.57
2022-12-25T10:19:15.674Z,22.37
2022-12-25T10:23:37.392Z,32.90
2022-12-25T10:27:43.728Z,24.73
2022-12-25T10:31:54.082Z,24.97
2022-12-25T10:36:00.104Z,28.27
2022-12-25T10:40:23.372Z,17.43
2022-12-25T10:44:29.321Z,26.00
2022-12-25T10:48:34.853Z,26.53
2022-12-25T10:53:05.184Z,22.30
2022-12-25T10:57:10.658Z,28.30
2022-12-25T11:01:16.532Z,26.87
2022-12-25T11:05:34.123Z,30.10
2022-12-25T11:09:40.411Z,23.07
2022-12-25T11:13:59.441Z,32.03
2022-12-25T11:18:27.483Z,29.03
2022-12-25T11:22:37.588Z,18.47
2022-12-25T11:26:57.759Z,27.73
2022-12-25T11:31:13.095Z,33.97
2022-12-25T11:35:19.124Z,34.33
2022-12-25T11:39:29.439Z,28.87
2022-12-25T11:43:47.469Z,20.70
2022-12-25T11:48:18.708Z,31.10
2022-12-25T11:52:28.696Z,23.90
2022-12-25T11:56:34.409Z,27.03
2022-12-25T12:00:43.227Z,26.93
2022-12-25T12:05:03.285Z,26.03
2022-12-25T12:09:50.970Z,35.47
2022-12-25T12:14:34.406Z,24.83
2022-12-25T12:18:46.588Z,20.83
2022-12-25T12:22:55.949Z,33.67
2022-12-25T12:27:05.855Z,27.93
2022-12-25T12:35:19.862Z,28.40
2022-12-25T12:47:47.753Z,26.40
2022-12-25T12:52:30.434Z,25.70
2022-12-25T13:00:52.691Z,22.43
2022-12-25T13:05:34.989Z,23.90
2022-12-25T13:10:23.898Z,14.87
2022-12-25T13:14:29.909Z,21.43
2022-12-25T13:18:35.536Z,19.70
2022-12-25T13:22:41.131Z,17.17
2022-12-25T13:26:46.889Z,20.63
2022-12-25T13:30:52.473Z,27.23
2022-12-25T13:34:59.733Z,18.57
2022-12-25T13:43:13.862Z,17.43
2022-12-25T13:47:25.836Z,15.53
2022-12-25T13:51:31.459Z,26.97
2022-12-25T13:55:37.291Z,16.87
2022-12-25T13:59:44.623Z,22.33
2022-12-25T14:03:50.161Z,16.17
2022-12-25T14:07:59.485Z,20.77
2022-12-25T14:12:05.397Z,14.40
2022-12-25T14:16:11.814Z,19.00
2022-12-25T14:20:30.227Z,20.93
2022-12-25T14:28:41.098Z,27.83
2022-12-25T14:32:52.765Z,20.77
2022-12-25T14:36:58.268Z,17.73
2022-12-25T14:41:33.395Z,28.37
2022-12-25T14:45:39.277Z,18.53
2022-12-25T14:49:46.354Z,21.10
2022-12-25T14:53:56.057Z,27.33
2022-12-25T14:58:05.893Z,26.85
2022-12-25T15:02:18.270Z,20.37
2022-12-25T15:06:25.189Z,21.90
2022-12-25T15:14:56.748Z,23.83
2022-12-25T15:19:02.582Z,15.63
2022-12-25T15:23:19.662Z,25.00
2022-12-25T15:27:26.652Z,19.90
2022-12-25T15:31:36.153Z,24.07
2022-12-25T15:35:44.178Z,20.70
2022-12-25T15:39:49.749Z,33.30
2022-12-25T15:43:55.293Z,23.40
2022-12-25T15:48:00.971Z,20.47
2022-12-25T15:52:10.387Z,28.47
2022-12-25T15:56:16.506Z,27.80
2022-12-25T16:00:23.293Z,16.90
2022-12-25T16:04:31.510Z,20.60
2022-12-25T16:08:37.094Z,20.00
2022-12-25T16:12:43.142Z,23.47
2022-12-25T16:16:48.680Z,28.87
2022-12-25T16:20:55.073Z,20.27
2022-12-25T16:25:00.697Z,24.83
2022-12-25T16:29:07.958Z,29.00
2022-12-25T16:33:13.468Z,25.13
2022-12-25T16:37:19.111Z,23.00
2022-12-25T16:41:25.539Z,36.03
2022-12-25T16:45:31.131Z,28.33
2022-12-25T16:49:36.666Z,24.03
2022-12-25T16:53:42.904Z,24.37
2022-12-25T16:57:51.184Z,23.27
2022-12-25T17:01:56.911Z,24.80
2022-12-25T17:06:03.434Z,27.60
2022-12-25T17:10:10.289Z,24.87
2022-12-25T17:14:15.877Z,26.97
2022-12-25T17:18:22.184Z,20.47
2022-12-25T17:22:27.696Z,26.90
2022-12-25T17:26:33.589Z,25.90
2022-12-25T17:30:39.096Z,32.80
2022-12-25T17:34:44.568Z,36.35
2022-12-25T17:38:50.565Z,38.13
2022-12-25T17:42:56.316Z,30.53
2022-12-25T17:47:02.355Z,32.20
2022-12-25T17:51:12.391Z,22.70
2022-12-25T17:55:18.513Z,34.17
2022-12-25T17:59:28.671Z,32.10
2022-12-25T18:24:05.858Z,26.77
2022-12-25T18:28:13.079Z,25.97
2022-12-25T18:32:24.815Z,22.80
2022-12-25T18:36:34.041Z,27.43
2022-12-25T18:40:48.500Z,23.10
2022-12-25T18:44:54.609Z,36.73
2022-12-25T18:49:00.442Z,22.07
2022-12-25T18:53:07.561Z,28.27
2022-12-25T18:57:13.406Z,30.80
2022-12-25T19:01:22.801Z,28.03
